sensor_id;sensor_type;location;lat;lon;timestamp;P1;durP1;ratioP1;P2;durP2;ratioP2
50367;SDS011;36281;34.132;-118.018;2023-04-29T00:00:10;16.85;;;11.95;;
50367;SDS011;36281;34.132;-118.018;2023-04-29T00:02:40;14.43;;;10.25;;
50367;SDS011;36281;34.132;-118.018;2023-04-29T00:05:10;15.65;;;11.82;;
50367;SDS011;36281;34.132;-118.018;2023-04-29T00:07:40;15.88;;;10.98;;
50367;SDS011;36281;34.132;-118.018;2023-04-29T00:10:10;12.98;;;10.32;;
50367;SDS011;36281;34.132;-118.018;2023-04-29T00:12:43;12.50;;;9.43;;
50367;SDS011;36281;34.132;-118.018;2023-04-29T00:15:12;11.43;;;9.27;;
50367;SDS011;36281;34.132;-118.018;2023-04-29T00:17:41;12.60;;;9.43;;
50367;SDS011;36281;34.132;-118.018;2023-04-29T00:20:12;12.73;;;9.35;;
50367;SDS011;36281;34.132;-118.018;2023-04-29T00:22:41;11.10;;;8.38;;
50367;SDS011;36281;34.132;-118.018;2023-04-29T00:25:12;11.52;;;8.25;;
50367;SDS011;36281;34.132;-118.018;2023-04-29T00:27:43;9.77;;;8.50;;
50367;SDS011;36281;34.132;-118.018;2023-04-29T00:30:12;10.77;;;9.15;;
50367;SDS011;36281;34.132;-118.018;2023-04-29T00:32:41;12.82;;;9.05;;
50367;SDS011;36281;34.132;-118.018;2023-04-29T00:35:11;10.52;;;8.63;;
50367;SDS011;36281;34.132;-118.018;2023-04-29T00:37:40;11.60;;;8.90;;
50367;SDS011;36281;34.132;-118.018;2023-04-29T00:40:10;10.32;;;8.93;;
50367;SDS011;36281;34.132;-118.018;2023-04-29T00:42:43;12.15;;;8.68;;
50367;SDS011;36281;34.132;-118.018;2023-04-29T00:45:12;10.18;;;8.10;;
50367;SDS011;36281;34.132;-118.018;2023-04-29T00:47:41;10.93;;;8.45;;
50367;SDS011;36281;34.132;-118.018;2023-04-29T00:50:10;11.73;;;8.98;;
50367;SDS011;36281;34.132;-118.018;2023-04-29T00:52:40;11.88;;;8.77;;
50367;SDS011;36281;34.132;-118.018;2023-04-29T00:55:10;10.30;;;8.63;;
50367;SDS011;36281;34.132;-118.018;2023-04-29T00:57:40;10.65;;;8.13;;
50367;SDS011;36281;34.132;-118.018;2023-04-29T01:00:11;10.68;;;8.60;;
50367;SDS011;36281;34.132;-118.018;2023-04-29T01:02:42;11.57;;;8.73;;
50367;SDS011;36281;34.132;-118.018;2023-04-29T01:05:13;12.07;;;8.18;;
50367;SDS011;36281;34.132;-118.018;2023-04-29T01:07:44;11.23;;;8.18;;
50367;SDS011;36281;34.132;-118.018;2023-04-29T01:10:25;10.35;;;7.22;;
50367;SDS011;36281;34.132;-118.018;2023-04-29T01:12:58;8.52;;;7.53;;
50367;SDS011;36281;34.132;-118.018;2023-04-29T01:15:37;8.75;;;7.28;;
50367;SDS011;36281;34.132;-118.018;2023-04-29T01:18:21;10.07;;;7.75;;
50367;SDS011;36281;34.132;-118.018;2023-04-29T01:20:53;9.95;;;7.72;;
50367;SDS011;36281;34.132;-118.018;2023-04-29T01:23:26;8.98;;;7.50;;
50367;SDS011;36281;34.132;-118.018;2023-04-29T01:25:56;8.23;;;6.72;;
50367;SDS011;36281;34.132;-118.018;2023-04-29T01:28:29;8.80;;;7.00;;
50367;SDS011;36281;34.132;-118.018;2023-04-29T01:31:09;11.15;;;7.10;;
50367;SDS011;36281;34.132;-118.018;2023-04-29T01:33:47;7.13;;;6.15;;
50367;SDS011;36281;34.132;-118.018;2023-04-29T01:36:22;9.65;;;6.55;;
50367;SDS011;36281;34.132;-118.018;2023-04-29T01:39:02;9.13;;;6.47;;
50367;SDS011;36281;34.132;-118.018;2023-04-29T01:41:39;8.07;;;6.40;;
50367;SDS011;36281;34.132;-118.018;2023-04-29T01:44:12;6.72;;;6.00;;
50367;SDS011;36281;34.132;-118.018;2023-04-29T01:46:48;8.40;;;6.40;;
50367;SDS011;36281;34.132;-118.018;2023-04-29T01:49:19;8.63;;;5.85;;
50367;SDS011;36281;34.132;-118.018;2023-04-29T01:51:48;7.43;;;6.03;;
50367;SDS011;36281;34.132;-118.018;2023-04-29T01:54:19;6.05;;;5.45;;
50367;SDS011;36281;34.132;-118.018;2023-04-29T01:56:51;6.93;;;5.97;;
50367;SDS011;36281;34.132;-118.018;2023-04-29T01:59:20;7.68;;;6.18;;
50367;SDS011;36281;34.132;-118.018;2023-04-29T02:01:49;10.07;;;5.38;;
50367;SDS011;36281;34.132;-118.018;2023-04-29T02:04:19;9.80;;;7.13;;
50367;SDS011;36281;34.132;-118.018;2023-04-29T02:06:48;8.50;;;6.53;;
50367;SDS011;36281;34.132;-118.018;2023-04-29T02:09:17;9.90;;;6.75;;
50367;SDS011;36281;34.132;-118.018;2023-04-29T02:11:48;7.72;;;6.63;;
50367;SDS011;36281;34.132;-118.018;2023-04-29T02:14:17;8.85;;;6.85;;
50367;SDS011;36281;34.132;-118.018;2023-04-29T02:16:46;9.65;;;7.72;;
50367;SDS011;36281;34.132;-118.018;2023-04-29T02:19:15;8.60;;;7.40;;
50367;SDS011;36281;34.132;-118.018;2023-04-29T02:21:44;10.13;;;8.00;;
50367;SDS011;36281;34.132;-118.018;2023-04-29T02:24:13;10.65;;;7.82;;
50367;SDS011;36281;34.132;-118.018;2023-04-29T02:26:44;11.73;;;7.75;;
50367;SDS011;36281;34.132;-118.018;2023-04-29T02:29:13;10.23;;;7.45;;
50367;SDS011;36281;34.132;-118.018;2023-04-29T02:31:42;10.82;;;7.95;;
50367;SDS011;36281;34.132;-118.018;2023-04-29T02:34:11;9.35;;;8.10;;
50367;SDS011;36281;34.132;-118.018;2023-04-29T02:36:40;10.13;;;8.13;;
50367;SDS011;36281;34.132;-118.018;2023-04-29T02:39:09;11.20;;;8.13;;
50367;SDS011;36281;34.132;-118.018;2023-04-29T02:41:38;11.25;;;7.88;;
50367;SDS011;36281;34.132;-118.018;2023-04-29T02:44:10;12.23;;;7.90;;
50367;SDS011;36281;34.132;-118.018;2023-04-29T02:46:39;11.73;;;8.02;;
50367;SDS011;36281;34.132;-118.018;2023-04-29T02:49:12;10.70;;;7.97;;
50367;SDS011;36281;34.132;-118.018;2023-04-29T02:51:41;11.55;;;7.85;;
50367;SDS011;36281;34.132;-118.018;2023-04-29T02:54:10;10.75;;;7.85;;
50367;SDS011;36281;34.132;-118.018;2023-04-29T02:56:39;11.43;;;7.78;;
50367;SDS011;36281;34.132;-118.018;2023-04-29T02:59:08;9.48;;;7.60;;
50367;SDS011;36281;34.132;-118.018;2023-04-29T03:01:38;11.27;;;7.13;;
50367;SDS011;36281;34.132;-118.018;2023-04-29T03:04:08;10.65;;;7.68;;
50367;SDS011;36281;34.132;-118.018;2023-04-29T03:06:37;9.18;;;7.70;;
50367;SDS011;36281;34.132;-118.018;2023-04-29T03:09:06;10.45;;;8.13;;
50367;SDS011;36281;34.132;-118.018;2023-04-29T03:11:35;10.10;;;8.07;;
50367;SDS011;36281;34.132;-118.018;2023-04-29T03:14:04;10.40;;;7.70;;
50367;SDS011;36281;34.132;-118.018;2023-04-29T03:16:35;9.70;;;7.28;;
50367;SDS011;36281;34.132;-118.018;2023-04-29T03:19:05;10.68;;;7.38;;
50367;SDS011;36281;34.132;-118.018;2023-04-29T03:21:34;9.23;;;7.05;;
50367;SDS011;36281;34.132;-118.018;2023-04-29T03:24:03;9.00;;;8.00;;
50367;SDS011;36281;34.132;-118.018;2023-04-29T03:26:33;9.38;;;7.55;;
50367;SDS011;36281;34.132;-118.018;2023-04-29T03:29:02;10.20;;;8.27;;
50367;SDS011;36281;34.132;-118.018;2023-04-29T03:31:31;10.27;;;8.50;;
50367;SDS011;36281;34.132;-118.018;2023-04-29T03:34:02;9.70;;;8.05;;
50367;SDS011;36281;34.132;-118.018;2023-04-29T03:36:31;11.13;;;8.20;;
50367;SDS011;36281;34.132;-118.018;2023-04-29T03:39:00;10.45;;;8.23;;
50367;SDS011;36281;34.132;-118.018;2023-04-29T03:41:30;11.35;;;8.45;;
50367;SDS011;36281;34.132;-118.018;2023-04-29T03:43:59;10.68;;;8.15;;
50367;SDS011;36281;34.132;-118.018;2023-04-29T03:46:28;12.63;;;7.93;;
50367;SDS011;36281;34.132;-118.018;2023-04-29T03:48:57;10.02;;;7.97;;
50367;SDS011;36281;34.132;-118.018;2023-04-29T03:51:29;14.57;;;8.82;;
50367;SDS011;36281;34.132;-118.018;2023-04-29T03:53:58;11.65;;;8.27;;
50367;SDS011;36281;34.132;-118.018;2023-04-29T03:56:28;9.40;;;8.15;;
50367;SDS011;36281;34.132;-118.018;2023-04-29T03:58:57;11.23;;;8.40;;
50367;SDS011;36281;34.132;-118.018;2023-04-29T04:01:26;13.35;;;9.10;;
50367;SDS011;36281;34.132;-118.018;2023-04-29T04:03:55;10.52;;;8.38;;
50367;SDS011;36281;34.132;-118.018;2023-04-29T04:06:25;11.45;;;8.93;;
50367;SDS011;36281;34.132;-118.018;2023-04-29T04:08:55;10.32;;;9.13;;
50367;SDS011;36281;34.132;-118.018;2023-04-29T04:11:24;10.32;;;8.82;;
50367;SDS011;36281;34.132;-118.018;2023-04-29T04:13:53;11.75;;;9.00;;
50367;SDS011;36281;34.132;-118.018;2023-04-29T04:16:22;13.85;;;9.63;;
50367;SDS011;36281;34.132;-118.018;2023-04-29T04:18:52;13.65;;;9.95;;
50367;SDS011;36281;34.132;-118.018;2023-04-29T04:21:21;12.15;;;10.57;;
50367;SDS011;36281;34.132;-118.018;2023-04-29T04:23:50;15.77;;;10.18;;
50367;SDS011;36281;34.132;-118.018;2023-04-29T04:26:21;13.15;;;9.95;;
50367;SDS011;36281;34.132;-118.018;2023-04-29T04:28:50;13.52;;;10.23;;
50367;SDS011;36281;34.132;-118.018;2023-04-29T04:31:19;12.07;;;10.25;;
50367;SDS011;36281;34.132;-118.018;2023-04-29T04:33:48;15.20;;;10.25;;
50367;SDS011;36281;34.132;-118.018;2023-04-29T04:36:17;14.27;;;11.02;;
50367;SDS011;36281;34.132;-118.018;2023-04-29T04:38:46;14.15;;;11.18;;
50367;SDS011;36281;34.132;-118.018;2023-04-29T04:41:15;14.52;;;11.02;;
50367;SDS011;36281;34.132;-118.018;2023-04-29T04:43:46;13.73;;;10.15;;
50367;SDS011;36281;34.132;-118.018;2023-04-29T04:46:15;15.10;;;10.80;;
50367;SDS011;36281;34.132;-118.018;2023-04-29T04:48:45;15.13;;;11.38;;
50367;SDS011;36281;34.132;-118.018;2023-04-29T04:51:14;14.82;;;11.60;;
50367;SDS011;36281;34.132;-118.018;2023-04-29T04:53:43;17.05;;;12.55;;
50367;SDS011;36281;34.132;-118.018;2023-04-29T04:56:12;14.77;;;11.73;;
50367;SDS011;36281;34.132;-118.018;2023-04-29T04:58:41;16.98;;;12.77;;
50367;SDS011;36281;34.132;-118.018;2023-04-29T05:01:11;16.55;;;12.23;;
50367;SDS011;36281;34.132;-118.018;2023-04-29T05:03:40;17.38;;;12.05;;
50367;SDS011;36281;34.132;-118.018;2023-04-29T05:06:10;17.58;;;11.98;;
50367;SDS011;36281;34.132;-118.018;2023-04-29T05:08:39;17.25;;;12.60;;
50367;SDS011;36281;34.132;-118.018;2023-04-29T05:11:14;18.70;;;13.30;;
50367;SDS011;36281;34.132;-118.018;2023-04-29T05:13:44;17.80;;;12.57;;
50367;SDS011;36281;34.132;-118.018;2023-04-29T05:16:15;16.05;;;12.25;;
50367;SDS011;36281;34.132;-118.018;2023-04-29T05:18:45;19.05;;;14.05;;
50367;SDS011;36281;34.132;-118.018;2023-04-29T05:21:14;19.77;;;13.70;;
50367;SDS011;36281;34.132;-118.018;2023-04-29T05:23:43;18.58;;;12.82;;
50367;SDS011;36281;34.132;-118.018;2023-04-29T05:26:12;18.15;;;13.13;;
50367;SDS011;36281;34.132;-118.018;2023-04-29T05:28:42;18.27;;;12.75;;
50367;SDS011;36281;34.132;-118.018;2023-04-29T05:31:11;18.00;;;14.15;;
50367;SDS011;36281;34.132;-118.018;2023-04-29T05:33:43;19.73;;;13.95;;
50367;SDS011;36281;34.132;-118.018;2023-04-29T05:36:12;21.58;;;14.20;;
50367;SDS011;36281;34.132;-118.018;2023-04-29T05:38:41;19.70;;;14.13;;
50367;SDS011;36281;34.132;-118.018;2023-04-29T05:41:11;20.40;;;15.55;;
50367;SDS011;36281;34.132;-118.018;2023-04-29T05:43:41;19.80;;;14.48;;
50367;SDS011;36281;34.132;-118.018;2023-04-29T05:46:10;23.75;;;15.05;;
50367;SDS011;36281;34.132;-118.018;2023-04-29T05:48:39;19.90;;;14.63;;
50367;SDS011;36281;34.132;-118.018;2023-04-29T05:51:09;22.20;;;15.50;;
50367;SDS011;36281;34.132;-118.018;2023-04-29T05:53:42;21.17;;;14.70;;
50367;SDS011;36281;34.132;-118.018;2023-04-29T05:56:11;23.80;;;15.68;;
50367;SDS011;36281;34.132;-118.018;2023-04-29T05:58:40;22.35;;;14.63;;
50367;SDS011;36281;34.132;-118.018;2023-04-29T06:01:09;21.45;;;15.90;;
50367;SDS011;36281;34.132;-118.018;2023-04-29T06:03:39;20.52;;;15.75;;
50367;SDS011;36281;34.132;-118.018;2023-04-29T06:06:10;24.02;;;16.83;;
50367;SDS011;36281;34.132;-118.018;2023-04-29T06:08:39;22.15;;;16.15;;
50367;SDS011;36281;34.132;-118.018;2023-04-29T06:11:09;24.95;;;17.92;;
50367;SDS011;36281;34.132;-118.018;2023-04-29T06:13:38;23.67;;;16.58;;
50367;SDS011;36281;34.132;-118.018;2023-04-29T06:16:07;24.58;;;17.00;;
50367;SDS011;36281;34.132;-118.018;2023-04-29T06:18:37;24.42;;;17.40;;
50367;SDS011;36281;34.132;-118.018;2023-04-29T06:21:06;26.92;;;17.85;;
50367;SDS011;36281;34.132;-118.018;2023-04-29T06:23:37;24.63;;;16.15;;
50367;SDS011;36281;34.132;-118.018;2023-04-29T06:26:06;22.77;;;16.40;;
50367;SDS011;36281;34.132;-118.018;2023-04-29T06:28:35;25.52;;;17.73;;
50367;SDS011;36281;34.132;-118.018;2023-04-29T06:31:04;25.13;;;17.83;;
50367;SDS011;36281;34.132;-118.018;2023-04-29T06:33:34;25.58;;;18.20;;
50367;SDS011;36281;34.132;-118.018;2023-04-29T06:36:03;25.35;;;17.35;;
50367;SDS011;36281;34.132;-118.018;2023-04-29T06:38:32;26.38;;;18.92;;
50367;SDS011;36281;34.132;-118.018;2023-04-29T06:41:03;27.40;;;18.73;;
50367;SDS011;36281;34.132;-118.018;2023-04-29T06:43:33;27.67;;;18.85;;
50367;SDS011;36281;34.132;-118.018;2023-04-29T06:46:02;26.02;;;18.13;;
50367;SDS011;36281;34.132;-118.018;2023-04-29T06:48:31;29.83;;;19.42;;
50367;SDS011;36281;34.132;-118.018;2023-04-29T06:51:00;26.10;;;18.83;;
50367;SDS011;36281;34.132;-118.018;2023-04-29T06:53:29;27.35;;;18.90;;
50367;SDS011;36281;34.132;-118.018;2023-04-29T06:55:58;30.00;;;19.50;;
50367;SDS011;36281;34.132;-118.018;2023-04-29T06:58:29;25.65;;;18.33;;
50367;SDS011;36281;34.132;-118.018;2023-04-29T07:00:58;26.20;;;18.67;;
50367;SDS011;36281;34.132;-118.018;2023-04-29T07:03:27;27.08;;;19.60;;
50367;SDS011;36281;34.132;-118.018;2023-04-29T07:05:56;29.33;;;20.23;;
50367;SDS011;36281;34.132;-118.018;2023-04-29T07:08:25;32.78;;;20.90;;
50367;SDS011;36281;34.132;-118.018;2023-04-29T07:10:55;29.42;;;20.70;;
50367;SDS011;36281;34.132;-118.018;2023-04-29T07:13:25;32.80;;;19.70;;
50367;SDS011;36281;34.132;-118.018;2023-04-29T07:15:55;29.70;;;21.02;;
50367;SDS011;36281;34.132;-118.018;2023-04-29T07:18:24;30.40;;;20.42;;
50367;SDS011;36281;34.132;-118.018;2023-04-29T07:20:53;32.42;;;21.30;;
50367;SDS011;36281;34.132;-118.018;2023-04-29T07:23:27;33.05;;;21.40;;
50367;SDS011;36281;34.132;-118.018;2023-04-29T07:25:56;28.95;;;19.83;;
50367;SDS011;36281;34.132;-118.018;2023-04-29T07:28:25;31.17;;;20.65;;
50367;SDS011;36281;34.132;-118.018;2023-04-29T07:30:56;30.00;;;20.52;;
50367;SDS011;36281;34.132;-118.018;2023-04-29T07:33:25;29.92;;;20.35;;
50367;SDS011;36281;34.132;-118.018;2023-04-29T07:35:55;32.47;;;21.80;;
50367;SDS011;36281;34.132;-118.018;2023-04-29T07:38:24;32.05;;;22.42;;
50367;SDS011;36281;34.132;-118.018;2023-04-29T07:40:53;32.63;;;22.48;;
50367;SDS011;36281;34.132;-118.018;2023-04-29T07:43:23;33.35;;;21.60;;
50367;SDS011;36281;34.132;-118.018;2023-04-29T07:45:52;34.45;;;22.58;;
50367;SDS011;36281;34.132;-118.018;2023-04-29T07:48:22;34.42;;;22.20;;
50367;SDS011;36281;34.132;-118.018;2023-04-29T07:50:51;35.00;;;22.50;;
50367;SDS011;36281;34.132;-118.018;2023-04-29T07:53:21;36.85;;;24.75;;
50367;SDS011;36281;34.132;-118.018;2023-04-29T07:55:50;37.88;;;25.00;;
50367;SDS011;36281;34.132;-118.018;2023-04-29T07:58:19;35.80;;;24.63;;
50367;SDS011;36281;34.132;-118.018;2023-04-29T08:00:48;42.65;;;25.85;;
50367;SDS011;36281;34.132;-118.018;2023-04-29T08:03:17;38.10;;;24.83;;
50367;SDS011;36281;34.132;-118.018;2023-04-29T08:05:48;38.00;;;25.20;;
50367;SDS011;36281;34.132;-118.018;2023-04-29T08:08:20;40.75;;;26.38;;
50367;SDS011;36281;34.132;-118.018;2023-04-29T08:10:52;39.95;;;26.33;;
50367;SDS011;36281;34.132;-118.018;2023-04-29T08:13:21;40.90;;;26.88;;
50367;SDS011;36281;34.132;-118.018;2023-04-29T08:15:51;41.38;;;27.00;;
50367;SDS011;36281;34.132;-118.018;2023-04-29T08:18:20;43.95;;;27.83;;
50367;SDS011;36281;34.132;-118.018;2023-04-29T08:20:51;40.85;;;27.25;;
50367;SDS011;36281;34.132;-118.018;2023-04-29T08:23:20;43.75;;;28.13;;
50367;SDS011;36281;34.132;-118.018;2023-04-29T08:25:49;42.90;;;28.85;;
50367;SDS011;36281;34.132;-118.018;2023-04-29T08:28:19;49.50;;;29.45;;
50367;SDS011;36281;34.132;-118.018;2023-04-29T08:30:48;42.15;;;27.30;;
50367;SDS011;36281;34.132;-118.018;2023-04-29T08:33:17;50.15;;;30.08;;
50367;SDS011;36281;34.132;-118.018;2023-04-29T08:35:46;46.63;;;28.88;;
50367;SDS011;36281;34.132;-118.018;2023-04-29T08:38:16;48.50;;;28.52;;
50367;SDS011;36281;34.132;-118.018;2023-04-29T08:40:45;47.22;;;29.23;;
50367;SDS011;36281;34.132;-118.018;2023-04-29T08:43:16;50.45;;;30.58;;
50367;SDS011;36281;34.132;-118.018;2023-04-29T08:45:46;45.38;;;29.48;;
50367;SDS011;36281;34.132;-118.018;2023-04-29T08:48:16;46.22;;;29.00;;
50367;SDS011;36281;34.132;-118.018;2023-04-29T08:50:46;44.90;;;29.55;;
50367;SDS011;36281;34.132;-118.018;2023-04-29T08:53:17;47.33;;;29.10;;
50367;SDS011;36281;34.132;-118.018;2023-04-29T08:55:46;49.78;;;29.83;;
50367;SDS011;36281;34.132;-118.018;2023-04-29T08:58:15;48.33;;;29.45;;
50367;SDS011;36281;34.132;-118.018;2023-04-29T09:00:44;48.13;;;29.30;;
50367;SDS011;36281;34.132;-118.018;2023-04-29T09:03:16;47.58;;;30.33;;
50367;SDS011;36281;34.132;-118.018;2023-04-29T09:05:52;45.75;;;29.02;;
50367;SDS011;36281;34.132;-118.018;2023-04-29T09:08:24;46.28;;;27.98;;
50367;SDS011;36281;34.132;-118.018;2023-04-29T09:10:54;48.38;;;28.95;;
50367;SDS011;36281;34.132;-118.018;2023-04-29T09:13:25;46.22;;;28.58;;
50367;SDS011;36281;34.132;-118.018;2023-04-29T09:15:54;48.00;;;28.83;;
50367;SDS011;36281;34.132;-118.018;2023-04-29T09:18:43;45.22;;;29.20;;
50367;SDS011;36281;34.132;-118.018;2023-04-29T09:21:13;52.00;;;30.98;;
50367;SDS011;36281;34.132;-118.018;2023-04-29T09:23:50;50.10;;;31.38;;
50367;SDS011;36281;34.132;-118.018;2023-04-29T09:26:20;53.00;;;30.63;;
50367;SDS011;36281;34.132;-118.018;2023-04-29T09:29:04;49.55;;;28.90;;
50367;SDS011;36281;34.132;-118.018;2023-04-29T09:31:36;51.80;;;31.45;;
50367;SDS011;36281;34.132;-118.018;2023-04-29T09:34:06;51.88;;;30.52;;
50367;SDS011;36281;34.132;-118.018;2023-04-29T09:36:36;50.80;;;30.95;;
50367;SDS011;36281;34.132;-118.018;2023-04-29T09:39:09;49.10;;;28.27;;
50367;SDS011;36281;34.132;-118.018;2023-04-29T09:41:41;52.45;;;30.55;;
50367;SDS011;36281;34.132;-118.018;2023-04-29T09:44:24;49.47;;;29.88;;
50367;SDS011;36281;34.132;-118.018;2023-04-29T09:46:59;50.58;;;30.00;;
50367;SDS011;36281;34.132;-118.018;2023-04-29T09:49:30;53.75;;;31.58;;
50367;SDS011;36281;34.132;-118.018;2023-04-29T09:52:01;50.85;;;29.90;;
50367;SDS011;36281;34.132;-118.018;2023-04-29T09:54:33;48.60;;;28.63;;
50367;SDS011;36281;34.132;-118.018;2023-04-29T09:57:05;56.00;;;31.65;;
50367;SDS011;36281;34.132;-118.018;2023-04-29T09:59:36;50.17;;;30.63;;
50367;SDS011;36281;34.132;-118.018;2023-04-29T10:02:06;49.97;;;30.05;;
50367;SDS011;36281;34.132;-118.018;2023-04-29T10:04:45;53.38;;;30.13;;
50367;SDS011;36281;34.132;-118.018;2023-04-29T10:07:15;53.92;;;29.85;;
50367;SDS011;36281;34.132;-118.018;2023-04-29T10:09:47;53.85;;;31.42;;
50367;SDS011;36281;34.132;-118.018;2023-04-29T10:12:16;56.58;;;31.25;;
50367;SDS011;36281;34.132;-118.018;2023-04-29T10:14:47;59.65;;;33.22;;
50367;SDS011;36281;34.132;-118.018;2023-04-29T10:17:33;53.55;;;30.40;;
50367;SDS011;36281;34.132;-118.018;2023-04-29T10:20:08;53.20;;;31.55;;
50367;SDS011;36281;34.132;-118.018;2023-04-29T10:22:44;55.95;;;31.77;;
50367;SDS011;36281;34.132;-118.018;2023-04-29T10:25:16;54.88;;;31.20;;
50367;SDS011;36281;34.132;-118.018;2023-04-29T10:27:47;59.47;;;33.05;;
50367;SDS011;36281;34.132;-118.018;2023-04-29T10:30:18;60.55;;;33.17;;
50367;SDS011;36281;34.132;-118.018;2023-04-29T10:32:49;59.20;;;33.03;;
50367;SDS011;36281;34.132;-118.018;2023-04-29T10:35:19;54.85;;;32.03;;
50367;SDS011;36281;34.132;-118.018;2023-04-29T10:37:52;57.28;;;33.33;;
50367;SDS011;36281;34.132;-118.018;2023-04-29T10:40:26;61.17;;;33.03;;
50367;SDS011;36281;34.132;-118.018;2023-04-29T10:43:01;58.90;;;33.08;;
50367;SDS011;36281;34.132;-118.018;2023-04-29T10:45:33;60.47;;;33.22;;
50367;SDS011;36281;34.132;-118.018;2023-04-29T10:48:12;57.22;;;33.50;;
50367;SDS011;36281;34.132;-118.018;2023-04-29T10:51:00;58.60;;;34.03;;
50367;SDS011;36281;34.132;-118.018;2023-04-29T10:53:30;58.10;;;32.88;;
50367;SDS011;36281;34.132;-118.018;2023-04-29T10:56:04;61.00;;;33.38;;
50367;SDS011;36281;34.132;-118.018;2023-04-29T10:58:38;59.28;;;33.50;;
50367;SDS011;36281;34.132;-118.018;2023-04-29T11:01:11;59.42;;;33.08;;
50367;SDS011;36281;34.132;-118.018;2023-04-29T11:03:50;62.78;;;34.40;;
50367;SDS011;36281;34.132;-118.018;2023-04-29T11:06:22;61.28;;;33.63;;
50367;SDS011;36281;34.132;-118.018;2023-04-29T11:09:02;56.03;;;33.42;;
50367;SDS011;36281;34.132;-118.018;2023-04-29T11:11:44;62.17;;;34.22;;
50367;SDS011;36281;34.132;-118.018;2023-04-29T11:14:36;61.08;;;32.33;;
50367;SDS011;36281;34.132;-118.018;2023-04-29T11:17:08;58.97;;;32.67;;
50367;SDS011;36281;34.132;-118.018;2023-04-29T11:19:40;58.42;;;32.60;;
50367;SDS011;36281;34.132;-118.018;2023-04-29T11:22:12;55.90;;;31.95;;
50367;SDS011;36281;34.132;-118.018;2023-04-29T11:24:52;60.08;;;34.13;;
50367;SDS011;36281;34.132;-118.018;2023-04-29T11:27:25;64.65;;;34.38;;
50367;SDS011;36281;34.132;-118.018;2023-04-29T11:29:57;63.88;;;34.72;;
50367;SDS011;36281;34.132;-118.018;2023-04-29T11:32:26;63.25;;;34.60;;
50367;SDS011;36281;34.132;-118.018;2023-04-29T11:35:06;65.10;;;34.58;;
50367;SDS011;36281;34.132;-118.018;2023-04-29T11:37:36;61.75;;;34.40;;
50367;SDS011;36281;34.132;-118.018;2023-04-29T11:40:05;63.47;;;34.42;;
50367;SDS011;36281;34.132;-118.018;2023-04-29T11:42:39;64.47;;;35.60;;
50367;SDS011;36281;34.132;-118.018;2023-04-29T11:45:09;62.58;;;35.15;;
50367;SDS011;36281;34.132;-118.018;2023-04-29T11:47:41;61.33;;;33.60;;
50367;SDS011;36281;34.132;-118.018;2023-04-29T11:50:15;61.33;;;34.10;;
50367;SDS011;36281;34.132;-118.018;2023-04-29T11:52:46;66.35;;;33.80;;
50367;SDS011;36281;34.132;-118.018;2023-04-29T11:55:17;62.15;;;34.10;;
50367;SDS011;36281;34.132;-118.018;2023-04-29T11:57:49;64.85;;;34.85;;
50367;SDS011;36281;34.132;-118.018;2023-04-29T12:00:19;63.67;;;34.72;;
50367;SDS011;36281;34.132;-118.018;2023-04-29T12:02:48;66.63;;;36.17;;
50367;SDS011;36281;34.132;-118.018;2023-04-29T12:05:18;66.40;;;35.22;;
50367;SDS011;36281;34.132;-118.018;2023-04-29T12:07:48;60.88;;;34.17;;
50367;SDS011;36281;34.132;-118.018;2023-04-29T12:10:17;66.30;;;35.40;;
50367;SDS011;36281;34.132;-118.018;2023-04-29T12:12:49;62.88;;;33.92;;
50367;SDS011;36281;34.132;-118.018;2023-04-29T12:15:19;66.80;;;36.50;;
50367;SDS011;36281;34.132;-118.018;2023-04-29T12:17:48;64.20;;;34.90;;
50367;SDS011;36281;34.132;-118.018;2023-04-29T12:20:19;64.18;;;34.55;;
50367;SDS011;36281;34.132;-118.018;2023-04-29T12:22:48;66.43;;;33.67;;
50367;SDS011;36281;34.132;-118.018;2023-04-29T12:25:17;64.07;;;33.92;;
50367;SDS011;36281;34.132;-118.018;2023-04-29T12:27:50;63.13;;;35.35;;
50367;SDS011;36281;34.132;-118.018;2023-04-29T12:30:19;65.07;;;33.38;;
50367;SDS011;36281;34.132;-118.018;2023-04-29T12:32:48;62.65;;;34.05;;
50367;SDS011;36281;34.132;-118.018;2023-04-29T12:35:20;65.38;;;36.05;;
50367;SDS011;36281;34.132;-118.018;2023-04-29T12:37:49;65.22;;;35.60;;
50367;SDS011;36281;34.132;-118.018;2023-04-29T12:40:18;67.22;;;36.78;;
50367;SDS011;36281;34.132;-118.018;2023-04-29T12:42:48;63.28;;;34.72;;
50367;SDS011;36281;34.132;-118.018;2023-04-29T12:45:26;70.00;;;34.78;;
50367;SDS011;36281;34.132;-118.018;2023-04-29T12:47:57;69.55;;;36.38;;
50367;SDS011;36281;34.132;-118.018;2023-04-29T12:50:30;62.63;;;33.70;;
50367;SDS011;36281;34.132;-118.018;2023-04-29T12:53:01;64.90;;;35.20;;
50367;SDS011;36281;34.132;-118.018;2023-04-29T12:55:31;62.25;;;33.35;;
50367;SDS011;36281;34.132;-118.018;2023-04-29T12:58:03;64.03;;;35.05;;
50367;SDS011;36281;34.132;-118.018;2023-04-29T13:00:32;65.95;;;35.78;;
50367;SDS011;36281;34.132;-118.018;2023-04-29T13:03:04;67.45;;;36.47;;
50367;SDS011;36281;34.132;-118.018;2023-04-29T13:05:34;61.97;;;34.20;;
50367;SDS011;36281;34.132;-118.018;2023-04-29T13:08:03;65.78;;;35.42;;
50367;SDS011;36281;34.132;-118.018;2023-04-29T13:10:33;66.70;;;34.95;;
50367;SDS011;36281;34.132;-118.018;2023-04-29T13:13:04;60.15;;;33.55;;
50367;SDS011;36281;34.132;-118.018;2023-04-29T13:15:36;61.22;;;33.22;;
50367;SDS011;36281;34.132;-118.018;2023-04-29T13:18:09;62.28;;;34.08;;
50367;SDS011;36281;34.132;-118.018;2023-04-29T13:20:38;61.22;;;32.45;;
50367;SDS011;36281;34.132;-118.018;2023-04-29T13:23:08;61.25;;;32.95;;
50367;SDS011;36281;34.132;-118.018;2023-04-29T13:25:38;63.25;;;32.10;;
50367;SDS011;36281;34.132;-118.018;2023-04-29T13:28:09;63.78;;;33.20;;
50367;SDS011;36281;34.132;-118.018;2023-04-29T13:30:38;60.83;;;34.28;;
50367;SDS011;36281;34.132;-118.018;2023-04-29T13:33:07;65.82;;;35.35;;
50367;SDS011;36281;34.132;-118.018;2023-04-29T13:35:39;65.85;;;35.78;;
50367;SDS011;36281;34.132;-118.018;2023-04-29T13:38:08;65.35;;;35.72;;
50367;SDS011;36281;34.132;-118.018;2023-04-29T13:40:37;63.75;;;34.95;;
50367;SDS011;36281;34.132;-118.018;2023-04-29T13:43:14;61.83;;;33.33;;
50367;SDS011;36281;34.132;-118.018;2023-04-29T13:45:58;68.13;;;35.63;;
50367;SDS011;36281;34.132;-118.018;2023-04-29T13:48:27;70.93;;;36.72;;
50367;SDS011;36281;34.132;-118.018;2023-04-29T13:51:16;65.82;;;35.15;;
50367;SDS011;36281;34.132;-118.018;2023-04-29T13:53:48;66.68;;;35.35;;
50367;SDS011;36281;34.132;-118.018;2023-04-29T13:56:20;67.32;;;34.47;;
50367;SDS011;36281;34.132;-118.018;2023-04-29T13:58:53;66.65;;;34.42;;
50367;SDS011;36281;34.132;-118.018;2023-04-29T14:01:26;66.50;;;35.80;;
50367;SDS011;36281;34.132;-118.018;2023-04-29T14:03:57;64.07;;;35.15;;
50367;SDS011;36281;34.132;-118.018;2023-04-29T14:06:27;65.28;;;34.50;;
50367;SDS011;36281;34.132;-118.018;2023-04-29T14:08:58;65.63;;;33.63;;